Time;durP1;ratioP1;P1;durP2;ratioP2;P2;SDS_P1;SDS_P2;PMS_P1;PMS_P2;Temp;Humidity;BMP_temperature;BMP_pressure;BME280_temperature;BME280_humidity;BME280_pressure;Samples;Min_cycle;Max_cycle;Signal;HPM_P1;HPM_P2
2022/05/26 00:00:59;;;;;;;11.45;2.63;;;20.10;64.30;;;;;;5039828;28;20079;-67
2022/05/26 00:03:24;;;;;;;10.98;3.00;;;20.00;64.30;;;;;;5039648;28;20028;-68
2022/05/26 00:05:51;;;;;;;9.60;2.47;;;20.10;64.30;;;;;;5040919;28;20074;-68
2022/05/26 00:08:17;;;;;;;9.88;2.53;;;20.00;64.20;;;;;;5036658;28;20025;-68
2022/05/26 00:10:42;;;;;;;9.57;2.85;;;20.00;64.30;;;;;;5040902;28;20093;-67
2022/05/26 00:13:08;;;;;;;9.38;2.75;;;20.00;64.30;;;;;;5031348;28;20405;-67
2022/05/26 00:15:34;;;;;;;11.88;2.70;;;20.00;64.40;;;;;;5034245;28;20498;-67
2022/05/26 00:18:00;;;;;;;10.80;2.97;;;20.00;64.40;;;;;;5030224;28;20025;-67
2022/05/26 00:20:25;;;;;;;10.48;2.47;;;20.00;64.50;;;;;;5034506;28;20409;-67
2022/05/26 00:22:51;;;;;;;10.40;2.72;;;20.00;64.50;;;;;;5040059;28;20021;-68
2022/05/26 00:25:16;;;;;;;8.38;2.40;;;20.00;64.50;;;;;;5035367;28;20056;-67
2022/05/26 00:27:42;;;;;;;11.63;2.95;;;20.00;64.50;;;;;;5040036;28;20568;-67
2022/05/26 00:30:09;;;;;;;11.77;2.83;;;20.00;64.40;;;;;;5037359;28;20207;-67
2022/05/26 00:32:34;;;;;;;9.43;2.97;;;19.90;64.40;;;;;;5037815;28;20073;-67
2022/05/26 00:35:00;;;;;;;10.70;2.60;;;20.00;64.40;;;;;;5035073;28;20025;-68
2022/05/26 00:37:26;;;;;;;11.98;2.58;;;20.00;64.50;;;;;;5036130;28;20560;-67
2022/05/26 00:39:52;;;;;;;9.15;2.22;;;20.00;64.40;;;;;;5040726;28;20207;-67
2022/05/26 00:42:17;;;;;;;9.15;2.80;;;20.00;64.40;;;;;;5038534;28;20064;-68
2022/05/26 00:44:43;;;;;;;9.82;2.90;;;19.90;64.40;;;;;;5036494;28;20843;-67
2022/05/26 00:47:17;;;;;;;13.15;2.70;;;19.90;64.40;;;;;;5033648;28;20055;-67
2022/05/26 00:50:12;;;;;;;11.30;3.08;;;19.90;64.40;;;;;;5051604;28;20053;-67
2022/05/26 00:52:42;;;;;;;10.20;2.20;;;19.90;64.40;;;;;;5034154;28;21567;-67
2022/05/26 00:55:30;;;;;;;10.75;2.60;;;19.90;64.40;;;;;;5034861;28;20186;-67
2022/05/26 00:58:00;;;;;;;11.05;2.45;;;19.90;64.20;;;;;;5032651;28;20086;-67
2022/05/26 01:00:27;;;;;;;9.95;2.40;;;19.90;64.30;;;;;;5036377;28;20460;-67
2022/05/26 01:03:18;;;;;;;8.13;2.28;;;19.90;64.20;;;;;;5033279;28;20072;-67
2022/05/26 01:05:43;;;;;;;7.97;2.28;;;19.90;64.20;;;;;;5035618;28;20024;-67
2022/05/26 01:08:13;;;;;;;8.85;2.20;;;19.90;64.30;;;;;;5036309;28;20041;-68
2022/05/26 01:10:38;;;;;;;8.77;2.53;;;19.90;64.10;;;;;;5033672;28;20037;-67
2022/05/26 01:13:04;;;;;;;12.55;2.78;;;19.80;64.20;;;;;;5048546;28;20398;-67
2022/05/26 01:15:31;;;;;;;10.63;2.67;;;19.80;64.10;;;;;;5034513;28;20493;-68
2022/05/26 01:18:43;;;;;;;9.13;2.20;;;19.80;64.10;;;;;;5067208;28;20468;-68
2022/05/26 01:21:16;;;;;;;8.48;2.50;;;19.80;64.10;;;;;;4995394;28;20120;-67
2022/05/26 01:23:50;;;;;;;6.72;2.10;;;19.80;64.10;;;;;;4984510;28;20069;-68
2022/05/26 01:26:49;;;;;;;8.32;2.35;;;19.80;64.10;;;;;;4978357;28;20522;-68
2022/05/26 01:29:39;;;;;;;9.88;2.60;;;19.80;64.10;;;;;;4997400;28;20072;-68
2022/05/26 01:32:18;;;;;;;8.10;2.28;;;19.80;64.10;;;;;;4992571;28;20052;-68
2022/05/26 01:34:55;;;;;;;7.97;2.35;;;19.80;64.10;;;;;;4984955;28;20105;-68
2022/05/26 01:37:45;;;;;;;9.35;2.40;;;19.70;63.90;;;;;;5005428;28;20518;-68
2022/05/26 01:40:20;;;;;;;7.93;2.38;;;19.80;64.00;;;;;;4991527;28;20030;-68
2022/05/26 01:43:00;;;;;;;8.32;2.10;;;19.80;64.00;;;;;;4978622;28;20030;-67
2022/05/26 01:46:01;;;;;;;8.23;2.10;;;19.80;64.00;;;;;;4984205;28;20034;-68
2022/05/26 01:48:33;;;;;;;7.72;2.10;;;19.70;63.90;;;;;;4978737;28;20129;-68
2022/05/26 01:51:02;;;;;;;9.63;2.40;;;19.70;63.90;;;;;;4998252;28;20133;-68
2022/05/26 01:53:51;;;;;;;6.18;2.35;;;19.70;63.90;;;;;;4980704;28;20074;-68
2022/05/26 01:56:25;;;;;;;7.20;2.30;;;19.70;64.00;;;;;;4962313;28;20129;-68
2022/05/26 01:59:23;;;;;;;8.75;2.20;;;19.70;64.00;;;;;;4963214;28;20034;-68
2022/05/26 02:01:56;;;;;;;9.30;2.30;;;19.70;63.90;;;;;;4970016;28;20447;-67
2022/05/26 02:04:25;;;;;;;9.32;2.47;;;19.70;65.00;;;;;;4961345;28;20034;-67
2022/05/26 02:07:14;;;;;;;7.22;2.15;;;19.70;64.00;;;;;;4967146;28;20030;-68
2022/05/26 02:09:41;;;;;;;5.90;1.90;;;19.70;63.90;;;;;;4944149;28;20475;-68
2022/05/26 02:12:16;;;;;;;8.35;2.42;;;19.60;63.90;;;;;;4941603;28;20023;-68
2022/05/26 02:14:46;;;;;;;8.27;2.20;;;19.70;63.90;;;;;;4962996;28;20105;-68
2022/05/26 02:17:15;;;;;;;9.68;2.35;;;19.60;65.00;;;;;;4978806;28;20125;-68
2022/05/26 02:19:43;;;;;;;8.45;2.25;;;19.70;63.90;;;;;;4966515;28;20038;-68
2022/05/26 02:22:19;;;;;;;8.75;2.15;;;19.60;64.00;;;;;;4947012;28;20539;-68
2022/05/26 02:24:55;;;;;;;6.70;2.47;;;19.70;63.90;;;;;;4955618;28;20076;-68
2022/05/26 02:27:21;;;;;;;7.15;2.17;;;19.60;63.80;;;;;;4961618;28;20035;-67
2022/05/26 02:29:55;;;;;;;7.35;2.20;;;19.60;63.90;;;;;;4976513;28;20081;-68
2022/05/26 02:32:40;;;;;;;6.70;1.90;;;19.60;63.90;;;;;;4976410;28;20089;-68
2022/05/26 02:35:29;;;;;;;6.68;2.13;;;19.60;63.90;;;;;;5030552;28;20530;-67
2022/05/26 02:38:04;;;;;;;5.80;1.95;;;19.60;63.90;;;;;;5029157;28;20036;-67
2022/05/26 02:40:29;;;;;;;8.82;2.13;;;19.60;63.90;;;;;;5059938;28;20072;-68
2022/05/26 02:43:15;;;;;;;5.90;1.88;;;19.60;63.90;;;;;;5033056;28;20469;-68
2022/05/26 02:45:40;;;;;;;;;;;19.60;63.90;;;;;;5031642;28;20435;-68
2022/05/26 02:48:29;;;;;;;9.10;2.35;;;19.60;63.90;;;;;;5039564;28;19978;-68
2022/05/26 02:51:15;;;;;;;8.32;2.00;;;19.60;64.00;;;;;;5035612;28;20098;-68
2022/05/26 02:54:08;;;;;;;6.72;1.83;;;19.60;64.00;;;;;;5041027;28;20025;-68
2022/05/26 02:56:48;;;;;;;5.85;1.88;;;19.60;64.00;;;;;;5061766;28;20047;-67
2022/05/26 02:59:34;;;;;;;5.45;1.85;;;19.50;63.90;;;;;;5033372;28;20313;-61
2022/05/26 03:02:04;;;;;;;6.97;2.10;;;19.60;64.00;;;;;;5044512;28;20029;-61
2022/05/26 03:04:39;;;;;;;7.65;1.90;;;19.50;63.90;;;;;;5039700;28;20067;-61
2022/05/26 03:07:09;;;;;;;6.68;1.88;;;19.60;64.00;;;;;;5041000;28;20040;-61
2022/05/26 03:09:36;;;;;;;7.50;1.90;;;19.50;63.90;;;;;;5018859;28;20059;-61
2022/05/26 03:12:01;;;;;;;7.20;1.98;;;19.50;63.90;;;;;;5039666;28;20390;-61
2022/05/26 03:14:27;;;;;;;6.03;2.00;;;19.50;64.00;;;;;;5037943;28;20029;-61
2022/05/26 03:16:53;;;;;;;6.93;2.20;;;19.50;64.00;;;;;;5036654;28;20036;-61
2022/05/26 03:19:21;;;;;;;7.97;1.77;;;19.50;64.00;;;;;;5036096;28;20022;-62
2022/05/26 03:21:53;;;;;;;7.18;2.08;;;19.50;64.00;;;;;;5037408;28;20095;-61
2022/05/26 03:24:21;;;;;;;6.00;2.03;;;19.50;64.00;;;;;;5039443;28;20037;-61
2022/05/26 03:26:46;;;;;;;5.93;1.85;;;19.50;64.00;;;;;;5035483;28;20022;-61
2022/05/26 03:29:12;;;;;;;7.80;1.88;;;19.50;64.00;;;;;;5033042;28;20039;-61
2022/05/26 03:31:38;;;;;;;7.15;2.10;;;19.50;64.00;;;;;;5038480;28;20048;-61
2022/05/26 03:42:18;;;;;;;6.07;1.80;;;19.40;64.00;;;;;;5039887;28;20039;-61
2022/05/26 03:44:44;;;;;;;5.90;1.77;;;19.40;64.10;;;;;;5034260;28;20022;-61
2022/05/26 03:47:09;;;;;;;6.93;1.83;;;19.50;64.10;;;;;;5065777;28;20052;-61
2022/05/26 03:49:35;;;;;;;8.15;2.10;;;19.40;64.10;;;;;;5030896;28;20041;-61
2022/05/26 03:52:01;;;;;;;6.65;1.80;;;19.50;64.10;;;;;;5037534;28;20025;-61
2022/05/26 03:54:27;;;;;;;7.05;1.98;;;19.50;64.10;;;;;;5030792;28;20090;-61
2022/05/26 03:56:52;;;;;;;8.23;2.22;;;19.50;64.20;;;;;;5039392;28;20033;-61
2022/05/26 03:59:19;;;;;;;6.22;2.00;;;19.50;64.20;;;;;;5038807;28;20516;-61
2022/05/26 04:01:45;;;;;;;5.05;1.67;;;19.40;64.20;;;;;;5032290;28;20025;-61
2022/05/26 04:04:10;;;;;;;4.50;1.50;;;19.40;64.20;;;;;;5035018;28;20037;-61
2022/05/26 04:06:36;;;;;;;6.63;2.42;;;19.40;64.20;;;;;;5037299;28;20515;-61
2022/05/26 04:09:03;;;;;;;6.53;1.90;;;19.40;64.20;;;;;;5033079;28;20128;-60
2022/05/26 04:11:29;;;;;;;5.68;2.00;;;19.50;64.30;;;;;;5040001;28;20512;-61
2022/05/26 04:13:54;;;;;;;5.20;1.85;;;19.40;64.30;;;;;;5035179;28;20060;-61
2022/05/26 04:16:20;;;;;;;6.00;1.90;;;19.40;64.40;;;;;;5042373;28;20374;-61
2022/05/26 04:18:46;;;;;;;5.95;1.65;;;19.40;64.40;;;;;;5031076;28;20030;-61
2022/05/26 04:21:12;;;;;;;7.38;1.90;;;19.40;64.40;;;;;;5036423;28;20083;-61
2022/05/26 04:23:38;;;;;;;7.18;1.70;;;19.40;64.40;;;;;;5039457;28;20040;-61
2022/05/26 04:26:04;;;;;;;7.35;1.90;;;19.40;64.40;;;;;;5035131;28;20025;-61
2022/05/26 04:28:30;;;;;;;5.78;1.80;;;19.40;64.50;;;;;;5038645;28;20025;-61
2022/05/26 04:30:55;;;;;;;5.43;1.85;;;19.40;64.60;;;;;;5033440;28;20041;-61
2022/05/26 04:33:21;;;;;;;4.50;1.70;;;19.40;64.50;;;;;;5029707;28;20110;-61
2022/05/26 04:35:47;;;;;;;5.72;2.08;;;19.40;64.60;;;;;;5039115;28;20025;-61
2022/05/26 04:38:12;;;;;;;6.00;1.73;;;19.40;64.60;;;;;;5035616;28;20029;-60
2022/05/26 04:40:39;;;;;;;7.03;2.00;;;19.40;64.60;;;;;;5031383;28;20029;-61
2022/05/26 04:43:06;;;;;;;5.63;1.70;;;19.40;64.60;;;;;;5041391;28;20528;-61
2022/05/26 04:45:32;;;;;;;7.57;1.83;;;19.40;64.70;;;;;;5031857;28;20105;-61
2022/05/26 04:47:57;;;;;;;5.88;1.75;;;19.30;64.70;;;;;;5033853;28;20533;-61
2022/05/26 04:50:23;;;;;;;3.42;1.50;;;19.40;64.70;;;;;;5038140;28;20037;-61
2022/05/26 04:52:49;;;;;;;5.15;1.67;;;19.30;64.70;;;;;;5038963;28;20021;-61
2022/05/26 04:55:15;;;;;;;6.97;1.70;;;19.40;64.70;;;;;;5034890;28;20158;-61
2022/05/26 04:57:40;;;;;;;5.72;2.10;;;19.40;64.80;;;;;;5036628;28;20025;-61
2022/05/26 05:00:10;;;;;;;6.90;1.75;;;19.40;64.80;;;;;;5033370;28;20033;-61
2022/05/26 05:02:36;;;;;;;5.80;2.00;;;19.30;64.80;;;;;;5036217;28;20546;-61
2022/05/26 05:05:02;;;;;;;6.32;1.70;;;19.30;64.80;;;;;;5033442;28;20048;-61
2022/05/26 05:07:28;;;;;;;5.20;1.85;;;19.40;64.90;;;;;;5035583;28;20082;-61
2022/05/26 05:09:54;;;;;;;6.05;1.58;;;19.30;64.80;;;;;;5035183;28;20289;-61
2022/05/26 05:12:20;;;;;;;5.38;1.95;;;19.30;64.80;;;;;;5035573;28;20029;-61
2022/05/26 05:14:49;;;;;;;5.13;2.13;;;19.30;64.80;;;;;;5033459;28;20037;-61
2022/05/26 05:17:16;;;;;;;8.10;2.03;;;19.30;64.90;;;;;;5034718;28;20045;-61
2022/05/26 05:19:42;;;;;;;7.60;1.92;;;19.30;64.90;;;;;;5030562;28;20504;-61
2022/05/26 05:22:34;;;;;;;6.50;1.83;;;19.30;65.00;;;;;;5030368;28;20033;-61
2022/05/26 05:25:02;;;;;;;7.80;1.75;;;19.30;65.00;;;;;;5035289;28;20037;-61
2022/05/26 05:27:41;;;;;;;7.43;2.03;;;19.30;65.00;;;;;;5031679;28;20083;-61
2022/05/26 05:30:13;;;;;;;5.80;1.70;;;19.30;65.00;;;;;;5034120;28;20076;-61
2022/05/26 05:32:40;;;;;;;4.95;1.63;;;19.30;65.00;;;;;;5067297;28;20059;-61
2022/05/26 05:35:14;;;;;;;6.07;1.77;;;19.30;65.00;;;;;;5036482;28;20567;-61
2022/05/26 05:37:40;;;;;;;5.13;1.88;;;19.30;65.00;;;;;;5036137;28;20033;-61
2022/05/26 05:40:06;;;;;;;5.35;1.83;;;19.30;65.00;;;;;;5038516;28;20033;-61
2022/05/26 05:42:32;;;;;;;5.50;1.70;;;19.30;65.10;;;;;;5030031;28;20094;-61
2022/05/26 05:44:58;;;;;;;5.57;1.85;;;19.30;65.10;;;;;;5037660;28;20025;-61
2022/05/26 05:47:24;;;;;;;5.63;1.60;;;19.30;65.30;;;;;;5036355;28;20072;-61
2022/05/26 05:49:49;;;;;;;4.63;1.80;;;19.30;65.20;;;;;;5032822;28;20073;-61
2022/05/26 05:52:18;;;;;;;4.63;1.85;;;19.30;65.20;;;;;;5040159;28;20021;-61
2022/05/26 05:54:44;;;;;;;5.68;1.73;;;19.30;65.40;;;;;;5030514;28;20393;-61
2022/05/26 05:57:10;;;;;;;5.50;1.70;;;19.30;65.20;;;;;;5034728;28;20120;-61
2022/05/26 05:59:35;;;;;;;5.57;1.65;;;19.30;65.20;;;;;;5033826;28;20108;-61
2022/05/26 06:02:01;;;;;;;5.25;1.88;;;19.30;65.40;;;;;;5033588;28;20128;-61
2022/05/26 06:04:27;;;;;;;3.97;1.35;;;19.20;65.30;;;;;;5033772;28;20394;-61
2022/05/26 06:06:52;;;;;;;6.25;1.80;;;19.30;65.30;;;;;;5028639;28;20064;-61
2022/05/26 06:09:18;;;;;;;6.07;1.98;;;19.30;65.30;;;;;;5038734;28;20045;-61
2022/05/26 06:11:44;;;;;;;5.53;1.83;;;19.20;65.50;;;;;;5039649;28;20509;-61
2022/05/26 06:14:10;;;;;;;4.35;1.65;;;19.20;65.60;;;;;;5030805;28;20033;-61
2022/05/26 06:16:36;;;;;;;5.50;2.05;;;19.30;65.80;;;;;;5035516;28;20107;-61
2022/05/26 06:19:01;;;;;;;6.07;1.90;;;19.30;65.60;;;;;;5041500;28;20249;-61
2022/05/26 06:21:27;;;;;;;5.10;1.70;;;19.20;65.50;;;;;;5037213;28;20028;-61
2022/05/26 06:23:56;;;;;;;5.13;2.03;;;19.30;65.70;;;;;;5040038;28;20047;-61
2022/05/26 06:26:26;;;;;;;6.38;1.73;;;19.30;65.50;;;;;;5040595;28;20059;-61
2022/05/26 06:31:36;;;;;;;5.20;1.52;;;19.20;65.50;;;;;;5038209;28;20055;-61
2022/05/26 06:39:30;;;;;;;5.00;1.65;;;19.20;65.50;;;;;;5038609;28;20085;-61
2022/05/26 06:42:08;;;;;;;7.07;2.00;;;19.20;65.70;;;;;;5040651;28;20071;-61
2022/05/26 06:44:38;;;;;;;3.08;1.60;;;19.20;65.60;;;;;;5039759;28;20013;-61
2022/05/26 06:47:22;;;;;;;6.68;1.95;;;19.20;65.50;;;;;;5037885;28;20057;-62
2022/05/26 06:49:48;;;;;;;5.15;1.60;;;19.20;65.50;;;;;;5041289;28;20048;-61
2022/05/26 06:52:14;;;;;;;4.18;1.80;;;19.20;65.60;;;;;;5035502;28;20402;-61
2022/05/26 06:54:42;;;;;;;4.43;1.40;;;19.20;65.40;;;;;;5039751;28;20043;-61
2022/05/26 06:57:08;;;;;;;4.95;1.60;;;19.20;65.50;;;;;;5040613;28;20034;-61
2022/05/26 06:59:34;;;;;;;4.43;1.77;;;19.20;65.60;;;;;;5042409;28;20101;-61
2022/05/26 07:02:00;;;;;;;5.20;1.98;;;19.20;65.30;;;;;;5040958;28;20123;-61
2022/05/26 07:04:26;;;;;;;3.72;1.45;;;19.20;65.40;;;;;;5040477;28;20755;-61
2022/05/26 07:06:53;;;;;;;4.22;1.60;;;19.20;65.30;;;;;;5038725;28;20017;-61
2022/05/26 07:09:19;;;;;;;3.83;1.60;;;19.20;65.20;;;;;;5044491;28;20049;-61
2022/05/26 07:11:45;;;;;;;4.88;1.55;;;19.20;65.20;;;;;;5039681;28;20469;-61
2022/05/26 07:14:11;;;;;;;6.82;1.90;;;19.20;65.30;;;;;;5036296;28;20029;-61
2022/05/26 07:16:37;;;;;;;2.90;1.42;;;19.20;65.40;;;;;;5039317;28;20025;-62
2022/05/26 07:19:03;;;;;;;4.97;1.73;;;19.20;65.20;;;;;;5041973;28;20044;-61
2022/05/26 07:21:28;;;;;;;4.25;1.40;;;19.20;65.20;;;;;;5040072;28;20024;-62
2022/05/26 07:23:54;;;;;;;4.30;1.60;;;19.20;65.20;;;;;;5046113;28;20082;-61
2022/05/26 07:26:20;;;;;;;4.65;2.05;;;19.10;65.20;;;;;;5045329;28;20037;-61
2022/05/26 07:28:46;;;;;;;3.65;1.48;;;19.10;65.10;;;;;;5036943;28;20091;-61
2022/05/26 07:31:13;;;;;;;3.83;1.48;;;19.10;65.20;;;;;;5033828;28;20033;-62
2022/05/26 07:33:38;;;;;;;4.78;1.58;;;19.20;65.20;;;;;;5031773;28;20079;-62
2022/05/26 07:36:04;;;;;;;6.32;1.42;;;19.20;65.50;;;;;;5039106;28;20629;-62
2022/05/26 07:41:25;;;;;;;4.57;1.58;;;19.20;65.60;;;;;;5034977;28;20033;-62
2022/05/26 07:43:54;;;;;;;6.75;1.73;;;19.30;65.40;;;;;;5039315;28;20029;-62
2022/05/26 07:46:21;;;;;;;5.35;1.48;;;19.30;65.20;;;;;;5040026;28;20025;-62
2022/05/26 07:48:47;;;;;;;5.57;1.83;;;19.30;65.20;;;;;;5067514;28;20029;-62
2022/05/26 07:51:13;;;;;;;3.42;1.38;;;19.30;65.20;;;;;;5038294;28;20397;-62
2022/05/26 07:53:40;;;;;;;5.78;1.60;;;19.20;65.10;;;;;;5038971;28;20025;-62
2022/05/26 07:56:06;;;;;;;5.38;1.42;;;19.20;65.20;;;;;;5049895;28;20395;-62
2022/05/26 07:58:34;;;;;;;4.55;1.17;;;19.30;64.90;;;;;;5035040;28;20036;-62
2022/05/26 08:01:01;;;;;;;4.50;1.60;;;19.20;64.60;;;;;;5038443;28;20040;-62
2022/05/26 08:03:27;;;;;;;5.07;1.58;;;19.20;64.70;;;;;;5040762;28;20419;-62
2022/05/26 08:05:52;;;;;;;6.53;1.38;;;19.20;64.60;;;;;;5039827;28;20029;-61
2022/05/26 08:08:18;;;;;;;6.05;1.52;;;19.20;64.80;;;;;;5047866;28;20027;-62
2022/05/26 08:10:44;;;;;;;8.15;1.40;;;19.20;64.60;;;;;;5036198;28;20036;-62
2022/05/26 08:13:11;;;;;;;6.10;1.77;;;19.20;64.50;;;;;;5037117;28;20051;-62
2022/05/26 08:15:36;;;;;;;4.90;1.40;;;19.20;64.70;;;;;;5038344;28;20060;-61
2022/05/26 08:18:02;;;;;;;8.23;1.35;;;19.20;64.90;;;;;;5035238;28;20951;-62
2022/05/26 08:20:28;;;;;;;8.50;1.60;;;19.20;65.00;;;;;;5043791;28;20028;-62
2022/05/26 08:22:54;;;;;;;10.13;1.90;;;19.30;65.10;;;;;;5031735;28;20025;-62
2022/05/26 08:25:20;;;;;;;7.72;1.80;;;19.30;65.70;;;;;;5035477;28;20493;-62
2022/05/26 08:27:45;;;;;;;8.10;2.03;;;19.30;65.50;;;;;;5034530;28;20136;-61
2022/05/26 08:30:11;;;;;;;4.38;1.20;;;19.30;65.90;;;;;;5079330;28;20643;-62
2022/05/26 08:32:37;;;;;;;10.45;1.90;;;19.30;65.40;;;;;;5038104;28;20039;-62
2022/05/26 08:35:06;;;;;;;8.75;2.00;;;19.30;65.40;;;;;;5039953;28;20029;-61
2022/05/26 08:37:32;;;;;;;11.13;1.75;;;19.30;65.70;;;;;;5035501;28;20025;-61
2022/05/26 08:39:58;;;;;;;10.05;2.10;;;19.30;66.10;;;;;;5030946;28;20591;-61
2022/05/26 08:42:25;;;;;;;8.30;1.73;;;19.30;66.00;;;;;;5038550;28;20100;-62
2022/05/26 08:44:50;;;;;;;6.03;1.80;;;19.40;66.50;;;;;;5049129;28;20021;-61
2022/05/26 08:47:18;;;;;;;12.20;2.17;;;19.40;66.70;;;;;;5041876;28;20051;-61
2022/05/26 08:49:57;;;;;;;7.78;1.75;;;19.30;66.80;;;;;;5034567;28;20086;-61
2022/05/26 08:52:28;;;;;;;9.55;2.13;;;19.40;66.90;;;;;;5063411;28;20385;-61
2022/05/26 08:55:01;;;;;;;7.57;1.80;;;19.30;66.60;;;;;;5041313;28;20033;-62
2022/05/26 08:57:47;;;;;;;7.88;1.80;;;19.40;66.40;;;;;;5021193;28;20044;-61
2022/05/26 09:00:18;;;;;;;13.65;2.10;;;19.40;66.80;;;;;;5028284;28;20045;-61
2022/05/26 09:02:44;;;;;;;10.15;2.00;;;19.40;66.90;;;;;;5038200;28;20494;-61
2022/05/26 09:05:14;;;;;;;10.43;2.15;;;19.40;66.90;;;;;;5034406;28;20091;-61
2022/05/26 09:13:34;;;;;;;7.13;1.90;;;19.40;67.20;;;;;;5036707;28;20071;-61
2022/05/26 09:16:00;;;;;;;6.68;2.00;;;19.40;66.90;;;;;;5034116;28;20464;-61
2022/05/26 09:18:26;;;;;;;7.55;1.73;;;19.40;67.30;;;;;;5038089;28;20040;-61
2022/05/26 09:20:51;;;;;;;7.55;2.10;;;19.40;67.10;;;;;;5033821;28;20120;-61
2022/05/26 09:23:28;;;;;;;7.88;2.00;;;19.40;66.80;;;;;;5065016;28;20028;-61
2022/05/26 09:26:00;;;;;;;8.10;1.90;;;19.40;67.00;;;;;;5040785;28;20658;-61
2022/05/26 09:28:31;;;;;;;9.10;1.98;;;19.40;67.40;;;;;;5032455;28;20038;-61
2022/05/26 09:31:21;;;;;;;8.20;1.80;;;19.40;67.30;;;;;;5037433;28;20124;-61
2022/05/26 09:34:02;;;;;;;7.85;2.15;;;19.40;67.00;;;;;;5062245;28;20448;-61
2022/05/26 09:36:36;;;;;;;8.57;1.98;;;19.40;67.30;;;;;;5034205;28;20037;-61
2022/05/26 09:39:02;;;;;;;7.38;1.80;;;19.40;67.60;;;;;;5034468;28;20065;-62
2022/05/26 09:41:28;;;;;;;9.98;2.03;;;19.40;67.30;;;;;;5037617;28;20175;-61
2022/05/26 09:43:57;;;;;;;7.97;2.20;;;19.40;68.30;;;;;;5035666;28;20108;-61
2022/05/26 09:46:25;;;;;;;7.63;2.00;;;19.40;67.40;;;;;;5043990;28;20631;-61
2022/05/26 09:49:07;;;;;;;10.27;2.28;;;19.40;67.50;;;;;;5042778;28;20095;-61
2022/05/26 09:51:44;;;;;;;9.40;2.05;;;19.50;68.20;;;;;;5045354;28;20033;-61
2022/05/26 09:54:23;;;;;;;8.57;1.92;;;19.50;67.50;;;;;;5043965;28;20040;-61
2022/05/26 09:56:49;;;;;;;7.35;2.20;;;19.40;67.80;;;;;;5046893;28;20040;-61
2022/05/26 09:59:33;;;;;;;7.15;1.85;;;19.50;68.10;;;;;;5037501;28;20032;-61
2022/05/26 10:02:10;;;;;;;8.48;1.75;;;19.50;67.60;;;;;;5036366;28;20031;-62
2022/05/26 10:05:01;;;;;;;5.35;1.77;;;19.50;67.60;;;;;;5047604;28;20067;-61
2022/05/26 10:07:39;;;;;;;10.88;2.22;;;19.50;67.70;;;;;;5042325;28;20040;-61
2022/05/26 10:10:23;;;;;;;9.95;2.42;;;19.50;67.70;;;;;;5046878;28;20152;-61
2022/05/26 10:13:11;;;;;;;6.80;2.10;;;19.50;67.50;;;;;;5043620;28;20028;-61
2022/05/26 10:16:17;;;;;;;8.95;1.95;;;19.50;67.30;;;;;;5044932;28;20030;-61
2022/05/26 10:19:10;;;;;;;5.93;1.90;;;19.50;67.30;;;;;;5036716;28;20037;-61
2022/05/26 10:22:08;;;;;;;6.35;1.98;;;19.50;67.50;;;;;;5042841;28;20032;-61
2022/05/26 10:24:36;;;;;;;9.27;2.33;;;19.50;66.30;;;;;;5047063;28;20291;-63
2022/05/26 10:27:25;;;;;;;7.95;2.28;;;19.60;67.50;;;;;;5041325;28;20033;-62
2022/05/26 10:30:43;;;;;;;9.55;2.20;;;19.60;67.40;;;;;;5034664;28;20226;-61
2022/05/26 10:33:37;;;;;;;8.13;2.22;;;19.60;66.80;;;;;;4940373;28;20043;-62
2022/05/26 10:37:00;;;;;;;9.95;2.20;;;19.60;67.40;;;;;;4941669;28;20063;-62
2022/05/26 10:39:35;;;;;;;8.35;2.50;;;19.60;67.60;;;;;;4945876;28;20400;-62
2022/05/26 10:42:20;;;;;;;6.55;2.00;;;19.60;67.60;;;;;;4929191;28;20039;-62
2022/05/26 10:44:56;;;;;;;9.82;2.28;;;19.60;67.40;;;;;;4941294;28;20556;-61
2022/05/26 10:47:50;;;;;;;12.80;2.83;;;19.70;67.30;;;;;;4931394;28;20051;-62
2022/05/26 10:50:19;;;;;;;8.52;2.25;;;19.70;67.30;;;;;;4917515;29;20058;-62
2022/05/26 10:52:48;;;;;;;7.15;2.03;;;19.70;67.70;;;;;;4921760;29;20047;-62
2022/05/26 10:55:33;;;;;;;12.05;4.05;;;19.70;66.90;;;;;;4909671;29;20078;-62
2022/05/26 10:58:04;;;;;;;16.50;8.43;;;19.70;67.60;;;;;;4910761;29;20048;-62
2022/05/26 11:00:30;;;;;;;11.07;3.95;;;19.70;69.00;;;;;;4926246;29;20031;-62
2022/05/26 11:03:19;;;;;;;9.77;3.85;;;19.70;69.10;;;;;;4927469;29;20044;-62
2022/05/26 11:05:50;;;;;;;12.82;2.88;;;19.80;69.30;;;;;;4926565;29;20028;-62
2022/05/26 11:08:44;;;;;;;11.85;2.95;;;19.80;69.70;;;;;;4938223;28;20073;-62
2022/05/26 11:11:20;;;;;;;10.48;2.63;;;19.80;68.80;;;;;;4992403;28;20046;-62
2022/05/26 11:14:09;;;;;;;8.05;2.50;;;19.80;68.80;;;;;;4979511;28;20030;-62
2022/05/26 11:19:46;;;;;;;8.30;2.40;;;19.80;67.90;;;;;;4966710;28;20427;-62
2022/05/26 11:22:13;;;;;;;10.30;2.63;;;19.80;68.30;;;;;;4981390;28;20034;-62
2022/05/26 11:24:39;;;;;;;9.02;2.55;;;19.90;68.50;;;;;;4993852;28;20022;-61
2022/05/26 11:27:10;;;;;;;13.07;2.88;;;19.90;67.90;;;;;;5004523;28;20459;-61
2022/05/26 11:30:03;;;;;;;8.43;2.50;;;19.90;67.90;;;;;;5039317;28;20037;-61
2022/05/26 11:38:26;;;;;;;11.27;2.53;;;19.90;68.00;;;;;;5040181;28;20035;-61
2022/05/26 11:40:55;;;;;;;10.32;2.90;;;20.00;67.90;;;;;;5039048;28;20029;-61
2022/05/26 11:43:29;;;;;;;13.52;2.75;;;20.00;67.70;;;;;;5032393;28;20486;-62
2022/05/26 11:45:55;;;;;;;15.43;2.60;;;20.00;67.20;;;;;;5037622;28;20039;-62
2022/05/26 11:48:33;;;;;;;12.93;2.55;;;20.00;67.50;;;;;;5045400;28;20413;-62
2022/05/26 11:51:02;;;;;;;7.80;2.45;;;20.00;67.40;;;;;;5043406;28;20375;-63
2022/05/26 11:53:28;;;;;;;6.88;2.30;;;20.00;67.60;;;;;;5039065;28;20048;-62
2022/05/26 11:56:04;;;;;;;8.82;2.90;;;20.00;67.40;;;;;;5044545;28;20076;-62
2022/05/26 11:58:32;;;;;;;12.68;3.00;;;20.00;68.50;;;;;;5044055;28;20030;-62
2022/05/26 12:01:14;;;;;;;8.95;2.65;;;20.00;67.60;;;;;;5035902;28;20021;-62
2022/05/26 12:03:55;;;;;;;6.82;2.40;;;20.00;67.20;;;;;;5040001;28;20017;-62
2022/05/26 12:06:36;;;;;;;7.70;2.50;;;20.00;67.00;;;;;;5040970;28;20034;-62
2022/05/26 12:09:12;;;;;;;10.73;2.13;;;20.00;64.90;;;;;;5046142;28;20120;-62
2022/05/26 12:12:00;;;;;;;6.88;1.80;;;19.90;64.30;;;;;;5035291;28;20022;-62
2022/05/26 12:14:40;;;;;;;7.35;1.95;;;19.90;63.50;;;;;;5038695;28;21872;-62
2022/05/26 12:17:32;;;;;;;8.73;2.10;;;19.90;63.20;;;;;;5041267;28;20034;-62
2022/05/26 12:20:10;;;;;;;7.57;1.83;;;19.80;62.40;;;;;;5039437;28;20025;-62
2022/05/26 12:22:41;;;;;;;7.57;1.98;;;19.80;61.60;;;;;;5033485;28;20025;-62
2022/05/26 12:25:27;;;;;;;29.67;4.68;;;19.70;61.30;;;;;;5039467;28;20048;-62
2022/05/26 12:27:54;;;;;;;13.18;2.83;;;19.80;61.80;;;;;;5028122;28;20044;-62
2022/05/26 12:30:44;;;;;;;12.82;2.70;;;19.80;62.30;;;;;;5045772;28;20029;-62
2022/05/26 12:33:21;;;;;;;10.75;2.72;;;19.80;62.90;;;;;;5035945;28;20069;-62
2022/05/26 12:36:13;;;;;;;11.60;2.60;;;19.90;62.90;;;;;;5033560;28;20440;-61
2022/05/26 12:39:04;;;;;;;10.98;2.83;;;19.90;63.40;;;;;;5031053;28;20028;-62
2022/05/26 12:41:57;;;;;;;11.13;2.35;;;20.00;63.50;;;;;;5035838;28;20553;-62
2022/05/26 12:44:32;;;;;;;10.75;2.47;;;20.00;63.30;;;;;;5037078;28;20029;-62
2022/05/26 12:47:16;;;;;;;;;;;20.00;63.80;;;;;;5033747;28;20045;-61
2022/05/26 12:50:00;;;;;;;13.35;2.97;;;20.00;64.00;;;;;;5033300;28;19916;-61
2022/05/26 12:52:32;;;;;;;9.38;2.42;;;20.10;63.90;;;;;;5034271;28;20039;-61
2022/05/26 12:55:13;;;;;;;11.65;2.90;;;20.10;64.10;;;;;;5039009;28;20021;-62
2022/05/26 12:57:42;;;;;;;13.73;2.90;;;20.10;64.00;;;;;;5036941;28;20022;-61
2022/05/26 13:00:27;;;;;;;9.95;2.60;;;20.10;64.10;;;;;;5036066;28;20127;-61
2022/05/26 13:03:12;;;;;;;;;;;20.10;64.20;;;;;;5041753;28;20440;-61
2022/05/26 13:05:43;;;;;;;15.07;2.67;;;20.10;64.10;;;;;;5038618;28;19916;-61
2022/05/26 13:08:16;;;;;;;13.38;2.55;;;20.20;64.10;;;;;;5053541;28;20490;-62
2022/05/26 13:10:42;;;;;;;11.43;2.47;;;20.20;64.10;;;;;;5039794;28;20056;-61
2022/05/26 13:13:25;;;;;;;9.32;2.47;;;20.20;64.00;;;;;;5042206;28;20033;-62
2022/05/26 13:15:50;;;;;;;10.05;2.33;;;20.20;63.70;;;;;;5039917;28;20041;-61
2022/05/26 13:18:20;;;;;;;9.20;2.10;;;20.20;63.70;;;;;;5036310;28;20025;-62
2022/05/26 13:20:46;;;;;;;9.63;2.35;;;20.20;63.50;;;;;;5037706;28;20029;-61
2022/05/26 13:23:13;;;;;;;13.65;2.40;;;20.20;63.50;;;;;;5066218;28;20036;-61
2022/05/26 13:25:39;;;;;;;12.93;2.45;;;20.20;63.50;;;;;;5044652;28;20111;-61
2022/05/26 13:28:08;;;;;;;11.63;2.35;;;20.20;63.40;;;;;;5034824;28;20612;-61
2022/05/26 13:33:38;;;;;;;9.13;2.45;;;20.20;63.60;;;;;;5045981;28;20508;-61
2022/05/26 13:36:05;;;;;;;9.13;2.22;;;20.30;63.70;;;;;;5039431;28;20037;-61
2022/05/26 13:38:35;;;;;;;11.32;2.65;;;20.20;63.90;;;;;;5038353;28;20078;-61
2022/05/26 13:41:02;;;;;;;9.65;2.10;;;20.30;63.70;;;;;;5044101;28;20060;-61
2022/05/26 13:43:28;;;;;;;13.15;2.45;;;20.30;63.70;;;;;;5043940;28;20021;-61
2022/05/26 13:45:54;;;;;;;11.25;2.50;;;20.30;63.70;;;;;;5035953;28;20032;-61
2022/05/26 13:48:29;;;;;;;9.93;2.25;;;20.30;63.70;;;;;;5045651;28;20136;-61